Time;durP1;ratioP1;P1;durP2;ratioP2;P2;SDS_P1;SDS_P2;PMS_P1;PMS_P2;Temp;Humidity;BMP_temperature;BMP_pressure;BME280_temperature;BME280_humidity;BME280_pressure;Samples;Min_cycle;Max_cycle;Signal;HPM_P1;HPM_P2
2021/01/25 00:01:59;;;;;;;13.18;11.77;;;;;;;0.08;100.00;99710.91;5222077;28;20037;-68
2021/01/25 00:04:30;;;;;;;14.18;12.27;;;;;;;0.08;98.88;99708.31;5223494;28;20080;-68
2021/01/25 00:07:02;;;;;;;15.82;12.00;;;;;;;0.08;99.65;99706.56;5222113;28;20038;-68
2021/01/25 00:09:33;;;;;;;18.40;12.93;;;;;;;0.11;99.41;99706.38;5223738;28;20398;-68
2021/01/25 00:12:05;;;;;;;15.93;13.85;;;;;;;0.09;99.78;99710.81;5224210;28;20566;-68
2021/01/25 00:14:36;;;;;;;17.08;14.45;;;;;;;0.06;100.00;99700.69;5222491;28;20036;-68
2021/01/25 00:17:07;;;;;;;19.15;14.80;;;;;;;0.05;100.00;99699.03;5238592;28;20079;-68
2021/01/25 00:19:38;;;;;;;16.70;13.40;;;;;;;0.07;100.00;99701.50;5223704;28;20121;-68
2021/01/25 00:22:09;;;;;;;17.20;14.07;;;;;;;0.06;100.00;99699.84;5223264;28;20028;-68
2021/01/25 00:24:41;;;;;;;16.75;13.77;;;;;;;0.10;100.00;99706.47;5218218;28;20037;-68
2021/01/25 00:27:12;;;;;;;15.73;13.02;;;;;;;0.09;100.00;99709.97;5220908;28;20084;-68
2021/01/25 00:29:43;;;;;;;15.95;13.77;;;;;;;0.09;100.00;99702.25;5221288;28;20033;-68
2021/01/25 00:32:15;;;;;;;15.63;13.70;;;;;;;0.09;100.00;99704.81;5222500;28;20088;-68
2021/01/25 00:34:46;;;;;;;14.90;13.00;;;;;;;0.09;100.00;99704.81;5223693;28;20033;-68
2021/01/25 00:37:17;;;;;;;15.50;12.20;;;;;;;0.11;100.00;99705.53;5221234;28;20109;-68
2021/01/25 00:39:49;;;;;;;15.38;12.43;;;;;;;0.08;99.39;99705.75;5222465;28;20041;-68
2021/01/25 00:42:20;;;;;;;14.13;12.07;;;;;;;0.10;100.00;99704.72;5222990;28;20104;-68
2021/01/25 00:44:51;;;;;;;15.02;11.95;;;;;;;0.14;100.00;99711.34;5224432;28;20179;-68
2021/01/25 00:47:22;;;;;;;14.43;11.70;;;;;;;0.14;99.46;99708.75;5225644;28;20032;-68
2021/01/25 00:49:54;;;;;;;15.93;11.68;;;;;;;0.11;100.00;99708.13;5224436;28;20091;-68
2021/01/25 00:52:25;;;;;;;12.43;10.27;;;;;;;0.12;100.00;99710.63;5224056;28;20033;-68
2021/01/25 00:54:56;;;;;;;15.05;11.55;;;;;;;0.09;100.00;99705.66;5223966;28;20034;-68
2021/01/25 00:57:27;;;;;;;13.73;12.32;;;;;;;0.05;100.00;99703.34;5225392;28;20113;-68
2021/01/25 00:59:59;;;;;;;13.45;11.30;;;;;;;0.10;100.00;99706.47;5223627;28;20029;-68
2021/01/25 01:02:30;;;;;;;13.25;11.48;;;;;;;0.09;100.00;99709.97;5225192;28;20112;-68
2021/01/25 01:05:03;;;;;;;12.00;10.32;;;;;;;0.09;100.00;99713.38;5223186;28;20084;-68
2021/01/25 01:07:35;;;;;;;13.77;10.10;;;;;;;0.05;100.00;99704.19;5224199;28;20051;-68
2021/01/25 01:10:06;;;;;;;13.13;10.43;;;;;;;0.05;100.00;99711.91;5225449;28;20030;-68
2021/01/25 01:12:37;;;;;;;12.43;10.48;;;;;;;0.07;100.00;99715.19;5223865;28;20060;-68
2021/01/25 01:15:12;;;;;;;12.30;10.20;;;;;;;0.14;100.00;99715.66;5225474;28;20021;-68
2021/01/25 01:17:44;;;;;;;13.73;10.77;;;;;;;0.11;100.00;99715.84;5222488;28;20113;-68
2021/01/25 01:20:15;;;;;;;11.95;10.40;;;;;;;0.07;100.00;99709.22;5222786;28;20037;-68
2021/01/25 01:22:46;;;;;;;12.63;10.35;;;;;;;0.08;100.00;99719.44;5222706;28;20017;-68
2021/01/25 01:25:18;;;;;;;13.50;11.13;;;;;;;0.08;100.00;99722.03;5224154;28;20025;-68
2021/01/25 01:27:49;;;;;;;13.15;10.20;;;;;;;0.10;100.00;99727.06;5224531;28;20492;-68
2021/01/25 01:30:21;;;;;;;12.45;10.55;;;;;;;0.12;100.00;99736.38;5224213;28;20033;-68
2021/01/25 01:32:52;;;;;;;17.50;11.00;;;;;;;0.10;100.00;99734.81;5237793;28;20029;-68
2021/01/25 01:35:23;;;;;;;14.10;11.60;;;;;;;0.12;100.00;99738.94;5224337;28;20025;-68
2021/01/25 01:37:54;;;;;;;14.35;11.15;;;;;;;0.15;100.00;99738.78;5222674;28;20034;-68
2021/01/25 01:40:26;;;;;;;13.60;10.88;;;;;;;0.11;100.00;99732.13;5223908;28;20037;-68
2021/01/25 01:42:57;;;;;;;15.20;11.35;;;;;;;0.18;100.00;99740.31;5224487;28;20030;-67
2021/01/25 01:45:28;;;;;;;14.57;11.43;;;;;;;0.15;100.00;99745.66;5220975;28;20034;-68
2021/01/25 01:48:00;;;;;;;14.90;12.85;;;;;;;0.17;100.00;99744.66;5224665;28;20063;-68
2021/01/25 01:50:31;;;;;;;12.93;11.40;;;;;;;0.16;99.73;99745.56;5223670;28;20026;-68
2021/01/25 01:53:03;;;;;;;17.65;12.63;;;;;;;0.11;99.18;99737.28;5219369;28;20365;-68
2021/01/25 01:55:34;;;;;;;14.35;12.45;;;;;;;0.15;100.00;99749.06;5222706;28;20481;-69
2021/01/25 01:58:06;;;;;;;17.42;13.55;;;;;;;0.19;100.00;99754.84;5223007;28;20055;-68
2021/01/25 02:00:37;;;;;;;13.82;12.35;;;;;;;0.19;100.00;99753.13;5220785;28;20511;-68
2021/01/25 02:03:08;;;;;;;18.27;13.55;;;;;;;0.21;100.00;99748.69;5222253;28;20063;-68
2021/01/25 02:05:42;;;;;;;17.55;14.27;;;;;;;0.15;100.00;99751.66;5236819;28;20144;-68
2021/01/25 02:08:14;;;;;;;16.88;14.43;;;;;;;0.16;100.00;99767.94;5222568;28;20545;-68
2021/01/25 02:10:49;;;;;;;16.43;14.73;;;;;;;0.15;99.69;99766.25;5223380;28;20057;-68
2021/01/25 02:13:22;;;;;;;18.35;15.73;;;;;;;0.11;100.00;99763.03;5223524;28;20306;-68
2021/01/25 02:15:53;;;;;;;18.17;16.25;;;;;;;0.18;100.00;99774.63;5222888;28;20552;-68
2021/01/25 02:18:24;;;;;;;19.10;17.13;;;;;;;0.16;100.00;99763.59;5223324;28;20124;-68
2021/01/25 02:20:57;;;;;;;20.55;17.45;;;;;;;0.23;100.00;99779.53;5223269;28;20032;-69
2021/01/25 02:23:56;;;;;;;23.00;18.37;;;;;;;0.26;100.00;99769.03;5222980;28;20113;-68
2021/01/25 02:26:58;;;;;;;21.48;18.95;;;;;;;0.31;100.00;99771.34;5238453;28;20029;-68
2021/01/25 02:29:33;;;;;;;21.95;18.45;;;;;;;0.29;100.00;99779.16;5223847;28;20030;-68
2021/01/25 02:32:07;;;;;;;25.60;21.33;;;;;;;0.25;99.64;99769.94;5222190;28;20105;-68
2021/01/25 02:34:39;;;;;;;23.55;20.63;;;;;;;0.21;99.89;99778.78;5221321;28;20048;-68
2021/01/25 02:37:11;;;;;;;25.90;21.17;;;;;;;0.24;100.00;99781.19;5221019;28;20026;-68
2021/01/25 02:39:42;;;;;;;27.42;21.98;;;;;;;0.28;100.00;99779.25;5223615;28;20033;-68
2021/01/25 02:42:14;;;;;;;28.98;23.80;;;;;;;0.29;100.00;99778.31;5222844;28;20080;-68
2021/01/25 02:44:47;;;;;;;24.73;21.60;;;;;;;0.26;100.00;99781.91;5225276;28;20037;-68
2021/01/25 02:47:19;;;;;;;29.13;23.10;;;;;;;0.24;99.68;99776.84;5226334;28;20037;-68
2021/01/25 02:49:50;;;;;;;29.05;24.23;;;;;;;0.25;100.00;99780.25;5224421;28;20529;-68
2021/01/25 02:52:21;;;;;;;29.23;23.73;;;;;;;0.29;100.00;99778.31;5220105;28;20045;-68
2021/01/25 02:54:55;;;;;;;27.25;22.83;;;;;;;0.31;100.00;99785.06;5226311;28;20083;-68
2021/01/25 02:57:26;;;;;;;;;;;;;;;0.41;98.87;99782.75;5219604;28;20028;-68
2021/01/25 02:59:59;;;;;;;26.08;22.13;;;;;;;0.30;100.00;99783.38;5225543;28;19921;-68
2021/01/25 03:02:32;;;;;;;30.25;24.30;;;;;;;0.29;100.00;99786.88;5220242;28;20499;-68
2021/01/25 03:05:04;;;;;;;28.60;24.55;;;;;;;0.32;100.00;99791.03;5223377;28;20041;-68
2021/01/25 03:07:36;;;;;;;30.02;24.92;;;;;;;0.35;100.00;99796.00;5222214;28;20081;-68
2021/01/25 03:10:08;;;;;;;31.52;24.95;;;;;;;0.34;100.00;99794.31;5227942;28;20025;-68
2021/01/25 03:12:39;;;;;;;32.92;26.88;;;;;;;0.28;100.00;99795.53;5224675;28;20044;-68
2021/01/25 03:15:13;;;;;;;35.10;27.63;;;;;;;0.32;100.00;99796.19;5224109;28;20029;-68
2021/01/25 03:17:44;;;;;;;32.28;26.63;;;;;;;0.30;100.00;99796.25;5225636;28;20030;-68
2021/01/25 03:20:16;;;;;;;34.05;26.65;;;;;;;0.34;100.00;99800.34;5226708;28;20029;-68
2021/01/25 03:22:47;;;;;;;36.83;26.33;;;;;;;0.30;100.00;99803.97;5226454;28;20040;-69
2021/01/25 03:25:18;;;;;;;34.03;25.85;;;;;;;0.37;100.00;99805.28;5242483;28;20025;-68
2021/01/25 03:27:50;;;;;;;34.17;27.80;;;;;;;0.28;99.31;99797.28;5226350;28;20387;-68
2021/01/25 03:30:21;;;;;;;33.22;25.63;;;;;;;0.36;100.00;99810.53;5225138;28;20032;-68
2021/01/25 03:32:52;;;;;;;34.78;27.80;;;;;;;0.37;100.00;99814.75;5225183;28;20014;-68
2021/01/25 03:35:24;;;;;;;33.03;26.55;;;;;;;0.38;100.00;99816.41;5225961;28;20547;-68
2021/01/25 03:37:55;;;;;;;36.47;27.60;;;;;;;0.43;100.00;99827.28;5226979;28;20034;-68
2021/01/25 03:40:26;;;;;;;33.38;27.65;;;;;;;0.39;100.00;99820.66;5226778;28;20034;-68
2021/01/25 03:42:57;;;;;;;37.47;28.90;;;;;;;0.41;100.00;99824.78;5224567;28;20065;-68
2021/01/25 03:45:29;;;;;;;34.72;28.55;;;;;;;0.42;100.00;99830.78;5224652;28;20037;-68
2021/01/25 03:48:00;;;;;;;38.15;29.48;;;;;;;0.36;100.00;99838.88;5224240;28;20463;-68
2021/01/25 03:50:31;;;;;;;38.10;31.17;;;;;;;0.37;100.00;99840.53;5221786;28;20030;-68
2021/01/25 03:53:03;;;;;;;39.30;31.45;;;;;;;0.37;100.00;99846.50;5225849;28;20025;-68
2021/01/25 03:55:34;;;;;;;37.80;30.15;;;;;;;0.37;100.00;99849.06;5221917;28;20037;-68
2021/01/25 03:58:06;;;;;;;37.83;30.65;;;;;;;0.44;100.00;99849.56;5224975;28;20109;-68
2021/01/25 04:00:37;;;;;;;40.58;31.80;;;;;;;0.46;100.00;99861.44;5226614;28;20890;-68
2021/01/25 04:03:08;;;;;;;41.25;32.53;;;;;;;0.43;100.00;99861.63;5222291;28;20067;-68
2021/01/25 04:05:40;;;;;;;44.05;33.50;;;;;;;0.49;100.00;99862.97;5222668;28;20062;-68
2021/01/25 04:08:11;;;;;;;44.33;32.95;;;;;;;0.47;100.00;99865.66;5224837;28;20037;-68
2021/01/25 04:10:42;;;;;;;42.60;33.25;;;;;;;0.46;100.00;99860.63;5224894;28;20036;-68
2021/01/25 04:13:13;;;;;;;44.08;34.45;;;;;;;0.51;100.00;99865.50;5225231;28;20036;-68
2021/01/25 04:15:45;;;;;;;46.92;34.95;;;;;;;0.48;100.00;99874.22;5223895;28;20091;-68
2021/01/25 04:18:16;;;;;;;48.20;35.53;;;;;;;0.51;100.00;99875.81;5224860;28;20030;-68
2021/01/25 04:20:47;;;;;;;48.05;35.63;;;;;;;0.47;100.00;99875.16;5223190;28;20031;-68
2021/01/25 04:23:18;;;;;;;49.80;35.90;;;;;;;0.47;100.00;99885.44;5222549;28;20045;-68
2021/01/25 04:25:50;;;;;;;46.30;34.55;;;;;;;0.46;100.00;99886.38;5224080;28;20022;-68
2021/01/25 04:28:21;;;;;;;49.42;36.30;;;;;;;0.44;100.00;99890.78;5223165;28;20509;-68
2021/01/25 04:30:52;;;;;;;50.28;36.65;;;;;;;0.44;100.00;99889.03;5224731;28;20037;-68
2021/01/25 04:33:24;;;;;;;48.40;35.78;;;;;;;0.43;99.94;99900.25;5222830;28;20395;-68
2021/01/25 04:35:55;;;;;;;52.55;37.50;;;;;;;0.51;100.00;99901.56;5225159;28;20510;-68
2021/01/25 04:38:26;;;;;;;49.95;36.60;;;;;;;0.51;100.00;99899.00;5226004;28;20036;-68
2021/01/25 04:40:58;;;;;;;56.80;37.90;;;;;;;0.50;100.00;99910.22;5222888;28;20040;-68
2021/01/25 04:43:30;;;;;;;55.28;38.13;;;;;;;0.52;100.00;99906.63;5221651;28;20041;-69
2021/01/25 04:46:02;;;;;;;55.42;37.97;;;;;;;0.53;100.00;99902.28;5223929;28;20084;-68
2021/01/25 04:48:37;;;;;;;56.25;38.03;;;;;;;0.48;100.00;99905.13;5223383;28;20499;-68
2021/01/25 04:51:08;;;;;;;59.30;39.53;;;;;;;0.43;100.00;99913.16;5223968;28;20037;-68
2021/01/25 04:53:40;;;;;;;65.20;42.40;;;;;;;0.44;100.00;99911.41;5223538;28;20120;-68
2021/01/25 04:56:12;;;;;;;64.55;41.92;;;;;;;0.45;100.00;99918.19;5225427;28;20513;-67
2021/01/25 04:58:44;;;;;;;69.65;45.15;;;;;;;0.43;100.00;99918.31;5220259;28;20034;-67
2021/01/25 05:01:15;;;;;;;73.28;47.20;;;;;;;0.51;100.00;99922.19;5215443;28;20079;-68
2021/01/25 05:03:46;;;;;;;81.60;49.50;;;;;;;0.50;100.00;99926.50;5221734;28;20018;-68
2021/01/25 05:06:19;;;;;;;77.93;49.17;;;;;;;0.51;100.00;99923.00;5219377;28;20046;-68
2021/01/25 05:08:50;;;;;;;76.28;48.40;;;;;;;0.50;100.00;99936.00;5223399;28;20537;-68
2021/01/25 05:11:22;;;;;;;72.97;47.42;;;;;;;0.50;100.00;99936.81;5225349;28;20029;-68
2021/01/25 05:14:06;;;;;;;70.50;46.40;;;;;;;0.52;100.00;99940.13;5224222;28;20032;-68
2021/01/25 05:16:37;;;;;;;70.25;45.40;;;;;;;0.45;100.00;99943.97;5223477;28;20033;-68
2021/01/25 05:19:09;;;;;;;66.55;45.15;;;;;;;0.36;100.00;99923.88;5223639;28;20533;-68
2021/01/25 05:21:45;;;;;;;66.68;44.80;;;;;;;0.45;100.00;99943.97;5221799;28;20044;-68
2021/01/25 05:24:17;;;;;;;64.20;42.95;;;;;;;0.47;100.00;99948.13;5238229;28;20511;-68
2021/01/25 05:26:58;;;;;;;60.63;42.95;;;;;;;0.53;100.00;99952.13;5224833;28;20076;-68
2021/01/25 05:29:30;;;;;;;63.67;42.88;;;;;;;0.48;100.00;99954.94;5224975;28;20060;-68
2021/01/25 05:32:01;;;;;;;62.45;41.97;;;;;;;0.51;100.00;99958.25;5238501;28;20108;-68
2021/01/25 05:34:32;;;;;;;57.78;40.88;;;;;;;0.51;100.00;99964.25;5212005;28;20089;-68
2021/01/25 05:37:03;;;;;;;60.80;42.17;;;;;;;0.54;100.00;99965.81;5223242;28;20026;-68
2021/01/25 05:39:35;;;;;;;55.15;39.17;;;;;;;0.46;99.86;99967.09;5223252;28;20030;-68
2021/01/25 05:42:06;;;;;;;52.72;37.70;;;;;;;0.46;99.75;99963.69;5219878;28;20622;-68
2021/01/25 05:44:38;;;;;;;56.17;38.33;;;;;;;0.41;100.00;99963.09;5220618;28;20396;-68
2021/01/25 05:47:10;;;;;;;52.80;37.20;;;;;;;0.44;100.00;99968.91;5224046;28;20034;-68
2021/01/25 05:49:47;;;;;;;53.28;37.53;;;;;;;0.48;100.00;99972.13;5220530;28;20400;-68
2021/01/25 05:52:18;;;;;;;52.60;36.97;;;;;;;0.45;100.00;99978.28;5222843;28;20034;-68
2021/01/25 05:54:49;;;;;;;54.88;39.28;;;;;;;0.45;100.00;99977.47;5225080;28;20437;-68
2021/01/25 05:57:21;;;;;;;50.90;37.42;;;;;;;0.44;100.00;99980.97;5221830;28;20498;-68
2021/01/25 05:59:52;;;;;;;55.67;38.58;;;;;;;0.39;100.00;99994.13;5222838;28;20502;-68
2021/01/25 06:02:25;;;;;;;52.40;38.60;;;;;;;0.36;99.57;99993.47;5239813;28;20443;-68
2021/01/25 06:04:56;;;;;;;53.03;38.30;;;;;;;0.38;100.00;99997.63;5221397;28;20053;-67
2021/01/25 06:07:28;;;;;;;54.13;39.33;;;;;;;0.40;100.00;100002.66;5222004;28;20052;-68
2021/01/25 06:10:02;;;;;;;56.22;39.17;;;;;;;0.32;100.00;100012.59;5225251;28;20040;-68
2021/01/25 06:12:43;;;;;;;56.97;38.53;;;;;;;0.39;99.89;100021.63;5220522;28;20080;-68
2021/01/25 06:15:21;;;;;;;58.80;41.35;;;;;;;0.38;100.00;100031.09;5224682;28;20444;-68
2021/01/25 06:17:56;;;;;;;57.08;40.20;;;;;;;0.38;99.75;100022.53;5225242;28;20026;-68
2021/01/25 06:20:30;;;;;;;62.05;41.28;;;;;;;0.36;100.00;100034.69;5241252;28;20036;-68
2021/01/25 06:23:03;;;;;;;58.50;40.42;;;;;;;0.33;100.00;100040.00;5225121;28;20101;-68
2021/01/25 06:25:35;;;;;;;57.92;40.88;;;;;;;0.33;100.00;100038.25;5226072;28;20335;-68
2021/01/25 06:28:06;;;;;;;59.80;40.90;;;;;;;0.35;100.00;100039.00;5225961;28;20056;-68
2021/01/25 06:30:42;;;;;;;59.03;40.85;;;;;;;0.38;100.00;100040.56;5224512;28;20033;-68
2021/01/25 06:33:18;;;;;;;58.50;41.63;;;;;;;0.40;100.00;100046.47;5226064;28;20038;-68
2021/01/25 06:35:51;;;;;;;54.25;38.35;;;;;;;0.31;100.00;100044.41;5227756;28;20029;-68
2021/01/25 06:38:24;;;;;;;55.17;39.40;;;;;;;0.41;100.00;100055.84;5224066;28;20109;-68
2021/01/25 06:40:55;;;;;;;55.45;39.28;;;;;;;0.40;100.00;100059.34;5227308;28;20037;-68
2021/01/25 06:43:27;;;;;;;52.72;37.70;;;;;;;0.39;100.00;100071.41;5226953;28;20029;-68
2021/01/25 06:45:58;;;;;;;53.83;38.78;;;;;;;0.38;100.00;100079.22;5225720;28;20485;-69
2021/01/25 06:48:29;;;;;;;54.20;36.75;;;;;;;0.38;100.00;100076.63;5227798;28;20116;-68
2021/01/25 06:51:02;;;;;;;51.72;36.67;;;;;;;0.39;100.00;100083.47;5226342;28;20549;-68
2021/01/25 06:53:35;;;;;;;49.05;36.55;;;;;;;0.39;100.00;100088.63;5223055;28;20103;-68
2021/01/25 06:56:06;;;;;;;47.90;34.45;;;;;;;0.40;100.00;100088.53;5226677;28;20472;-69
2021/01/25 06:58:45;;;;;;;52.92;35.47;;;;;;;0.42;100.00;100091.88;5225753;28;20033;-68
2021/01/25 07:01:21;;;;;;;50.50;34.58;;;;;;;0.47;100.00;100107.91;5223125;28;20505;-68
2021/01/25 07:03:57;;;;;;;43.17;33.63;;;;;;;0.45;100.00;100114.03;5223759;28;20068;-68
2021/01/25 07:06:35;;;;;;;44.83;32.28;;;;;;;0.48;100.00;100116.44;5224747;28;20090;-68
2021/01/25 07:09:07;;;;;;;49.85;34.35;;;;;;;0.46;100.00;100120.88;5221333;28;20388;-68
2021/01/25 07:11:38;;;;;;;44.03;31.15;;;;;;;0.43;99.54;100126.19;5213105;28;20040;-69
2021/01/25 07:14:13;;;;;;;44.95;31.98;;;;;;;0.48;100.00;100131.91;5207090;28;20411;-68
2021/01/25 07:16:44;;;;;;;42.63;29.77;;;;;;;0.44;99.70;100128.66;5218048;28;20036;-68
2021/01/25 07:19:16;;;;;;;40.05;30.63;;;;;;;0.44;100.00;100140.72;5221884;28;20395;-68
2021/01/25 07:21:49;;;;;;;41.25;30.35;;;;;;;0.42;100.00;100143.41;5225907;28;20055;-68
2021/01/25 07:24:22;;;;;;;;;;;;;;;0.60;99.03;100154.44;5225006;28;20040;-68
2021/01/25 07:26:55;;;;;;;38.58;26.58;;;;;;;0.48;100.00;100155.09;5223202;28;19913;-69
2021/01/25 07:29:27;;;;;;;41.08;29.23;;;;;;;0.48;99.58;100168.00;5225021;28;20039;-68
2021/01/25 07:31:59;;;;;;;38.50;28.23;;;;;;;0.46;100.00;100172.41;5221526;28;20029;-68
2021/01/25 07:34:31;;;;;;;37.83;28.85;;;;;;;0.46;100.00;100180.16;5221793;28;20033;-68
2021/01/25 07:37:02;;;;;;;40.42;30.05;;;;;;;0.51;100.00;100179.88;5223210;28;20036;-68
2021/01/25 07:39:34;;;;;;;40.35;29.50;;;;;;;0.37;100.00;100171.13;5222233;28;20112;-68
2021/01/25 07:42:06;;;;;;;37.88;28.90;;;;;;;0.40;100.00;100195.91;5216365;28;20045;-68
2021/01/25 07:44:37;;;;;;;38.60;28.73;;;;;;;0.40;99.41;100201.91;5214407;28;20045;-68
2021/01/25 07:47:09;;;;;;;34.88;27.63;;;;;;;0.40;100.00;100207.06;5221506;28;20034;-69
2021/01/25 07:49:40;;;;;;;37.92;30.13;;;;;;;0.40;100.00;100216.53;5225585;28;20036;-68
2021/01/25 07:52:17;;;;;;;36.50;28.40;;;;;;;0.39;99.86;100213.13;5221631;28;20057;-68
2021/01/25 07:54:49;;;;;;;39.63;28.90;;;;;;;0.32;98.61;100222.09;5225658;28;20033;-68
2021/01/25 07:57:23;;;;;;;40.30;29.25;;;;;;;0.33;99.84;100223.75;5222729;28;20034;-68
2021/01/25 07:59:55;;;;;;;39.38;29.65;;;;;;;0.29;99.91;100231.72;5222238;28;20470;-68
2021/01/25 08:02:27;;;;;;;40.20;29.05;;;;;;;0.26;99.27;100231.88;5222647;28;20022;-68
2021/01/25 08:05:00;;;;;;;37.15;28.42;;;;;;;0.29;100.00;100242.03;5224731;28;20121;-68
2021/01/25 08:07:31;;;;;;;;;;;;;;;0.44;98.19;100238.66;5222796;28;20581;-68
2021/01/25 08:10:03;;;;;;;36.45;27.77;;;;;;;0.30;100.00;100249.66;5221193;28;20016;-68
2021/01/25 08:12:35;;;;;;;37.10;28.65;;;;;;;0.32;100.00;100253.00;5219535;28;20069;-68
2021/01/25 08:15:10;;;;;;;41.15;29.55;;;;;;;0.28;99.84;100248.94;5219481;28;20383;-68
2021/01/25 08:17:48;;;;;;;41.60;28.92;;;;;;;0.35;100.00;100272.63;5221986;28;20033;-68
2021/01/25 08:20:22;;;;;;;35.38;27.70;;;;;;;0.30;100.00;100270.28;5221757;28;20021;-68
2021/01/25 08:23:07;;;;;;;39.42;27.90;;;;;;;0.31;100.00;100282.28;5223197;28;20025;-68
2021/01/25 08:25:39;;;;;;;40.42;28.98;;;;;;;0.31;100.00;100286.59;5218921;28;20033;-68
2021/01/25 08:28:22;;;;;;;38.08;28.23;;;;;;;0.32;100.00;100295.97;5225491;28;20021;-68
2021/01/25 08:31:05;;;;;;;38.03;29.10;;;;;;;0.25;99.04;100300.59;5224015;28;20396;-68
2021/01/25 08:33:38;;;;;;;37.50;28.48;;;;;;;0.21;100.00;100307.66;5221930;28;20391;-68
2021/01/25 08:36:11;;;;;;;41.95;30.27;;;;;;;0.19;100.00;100303.47;5219527;28;20526;-68
2021/01/25 08:38:42;;;;;;;41.40;29.80;;;;;;;0.17;100.00;100311.28;5223040;28;20029;-69
2021/01/25 08:41:32;;;;;;;42.80;31.40;;;;;;;0.18;99.71;100315.53;5221012;28;20380;-69
2021/01/25 08:44:14;;;;;;;39.63;29.25;;;;;;;0.16;100.00;100313.97;5217995;28;20037;-68
2021/01/25 08:46:46;;;;;;;40.88;29.10;;;;;;;0.02;99.31;100306.91;5219451;28;20502;-68
2021/01/25 08:49:31;;;;;;;42.95;28.25;;;;;;;0.07;99.21;100322.97;5221932;28;20169;-69
2021/01/25 08:52:21;;;;;;;40.42;30.00;;;;;;;0.09;100.00;100323.72;5218659;28;20033;-68
2021/01/25 08:55:09;;;;;;;39.83;28.33;;;;;;;0.10;99.38;100332.28;5219328;28;20030;-68
2021/01/25 08:57:42;;;;;;;40.67;28.90;;;;;;;0.07;99.40;100335.00;5222159;28;20040;-68
2021/01/25 09:00:17;;;;;;;40.20;29.48;;;;;;;0.07;99.48;100348.72;5221994;28;20025;-68
2021/01/25 09:02:55;;;;;;;39.28;29.20;;;;;;;0.11;100.00;100354.53;5224502;28;20030;-68
2021/01/25 09:05:27;;;;;;;35.78;29.23;;;;;;;0.10;98.94;100358.88;5219003;28;20026;-69
2021/01/25 09:07:59;;;;;;;37.83;30.45;;;;;;;0.10;100.00;100364.03;5219386;28;20047;-68
2021/01/25 09:10:30;;;;;;;38.20;30.08;;;;;;;0.09;98.36;100367.50;5215946;28;21094;-68
2021/01/25 09:13:01;;;;;;;41.22;30.75;;;;;;;0.14;100.00;100362.97;5219728;28;20040;-69
2021/01/25 09:15:33;;;;;;;40.63;30.48;;;;;;;0.13;98.61;100366.44;5222347;28;20483;-69
2021/01/25 09:18:07;;;;;;;38.58;29.30;;;;;;;0.13;98.09;100366.44;5216312;28;20493;-69
2021/01/25 09:20:38;;;;;;;39.00;28.75;;;;;;;0.09;97.82;100364.94;5219193;28;20033;-69
2021/01/25 09:23:09;;;;;;;39.90;28.80;;;;;;;0.08;98.31;100378.72;5217991;28;20490;-69
2021/01/25 09:25:40;;;;;;;39.30;30.40;;;;;;;0.09;98.06;100377.81;5220146;28;20029;-69
2021/01/25 09:28:13;;;;;;;37.67;28.33;;;;;;;0.10;98.65;100370.91;5221787;28;20419;-69
2021/01/25 09:30:44;;;;;;;40.00;29.40;;;;;;;0.12;97.67;100382.81;5221238;28;20029;-69
2021/01/25 09:33:15;;;;;;;36.58;26.80;;;;;;;0.15;97.71;100386.97;5216767;28;20060;-69
2021/01/25 09:35:47;;;;;;;39.40;29.33;;;;;;;0.13;98.51;100386.22;5217415;28;20510;-69
2021/01/25 09:38:18;;;;;;;35.55;28.25;;;;;;;0.16;98.40;100396.38;5220362;28;20130;-69
2021/01/25 09:40:50;;;;;;;38.10;28.63;;;;;;;0.14;99.07;100404.16;5222510;28;20479;-69
2021/01/25 09:43:23;;;;;;;38.67;28.88;;;;;;;0.20;98.22;100406.47;5219578;28;20029;-69
2021/01/25 09:45:54;;;;;;;42.67;29.50;;;;;;;0.23;99.28;100408.91;5222615;28;20068;-69
2021/01/25 09:48:26;;;;;;;36.53;27.48;;;;;;;0.29;97.97;100412.91;5220858;28;20479;-69
2021/01/25 09:50:57;;;;;;;36.97;29.20;;;;;;;0.28;97.05;100420.72;5220234;28;20048;-69
2021/01/25 09:53:28;;;;;;;34.00;27.63;;;;;;;0.31;98.22;100430.88;5220493;28;20040;-69
2021/01/25 09:55:59;;;;;;;35.28;27.00;;;;;;;0.37;97.00;100430.56;5221933;28;20030;-69
2021/01/25 09:58:32;;;;;;;37.42;28.45;;;;;;;0.37;97.09;100446.84;5222243;28;20033;-69
2021/01/25 10:01:05;;;;;;;36.23;27.10;;;;;;;0.37;97.04;100444.28;5217302;28;20292;-69
2021/01/25 10:03:37;;;;;;;38.10;28.73;;;;;;;0.47;96.90;100457.56;5218453;28;20029;-69
2021/01/25 10:06:08;;;;;;;39.53;29.63;;;;;;;0.52;97.54;100453.00;5220300;28;20048;-68
2021/01/25 10:08:40;;;;;;;34.53;28.35;;;;;;;0.57;97.38;100468.22;5221158;28;20565;-68
2021/01/25 10:11:11;;;;;;;40.67;29.75;;;;;;;0.60;97.40;100463.75;5221165;28;20080;-69
2021/01/25 10:13:42;;;;;;;41.88;28.13;;;;;;;0.64;96.52;100470.44;5219550;28;20040;-68
2021/01/25 10:16:13;;;;;;;38.25;29.27;;;;;;;0.64;96.67;100477.31;5218862;28;20475;-69
2021/01/25 10:18:46;;;;;;;45.03;32.78;;;;;;;0.67;96.32;100483.16;5219303;28;20046;-68
2021/01/25 10:21:18;;;;;;;39.92;31.65;;;;;;;0.72;97.24;100488.13;5235589;28;20021;-69
2021/01/25 10:23:50;;;;;;;40.38;32.08;;;;;;;0.78;97.12;100485.22;5217731;28;20479;-69
2021/01/25 10:26:21;;;;;;;35.28;28.55;;;;;;;0.77;95.41;100490.47;5216932;28;20040;-68
2021/01/25 10:28:53;;;;;;;35.10;26.88;;;;;;;0.80;93.71;100490.31;5218984;28;20025;-69
2021/01/25 10:31:24;;;;;;;32.88;26.10;;;;;;;0.82;94.33;100489.31;5221729;28;20036;-69
2021/01/25 10:33:55;;;;;;;33.20;25.25;;;;;;;0.94;93.58;100499.00;5219842;28;20053;-68
2021/01/25 10:36:26;;;;;;;35.92;27.80;;;;;;;1.01;94.66;100503.88;5218020;28;20029;-69
2021/01/25 10:38:58;;;;;;;34.28;27.75;;;;;;;1.04;94.37;100507.13;5219607;28;20072;-68
2021/01/25 10:41:29;;;;;;;36.80;26.45;;;;;;;1.08;93.04;100508.63;5223154;28;20192;-69
2021/01/25 10:44:00;;;;;;;35.47;27.98;;;;;;;1.13;93.01;100511.81;5219761;28;20027;-69
2021/01/25 10:46:31;;;;;;;37.35;28.45;;;;;;;1.21;94.94;100508.81;5222632;28;20479;-69
2021/01/25 10:49:03;;;;;;;34.50;26.98;;;;;;;1.29;93.57;100518.75;5221860;28;20042;-69
2021/01/25 10:51:34;;;;;;;35.38;28.10;;;;;;;1.31;94.86;100528.09;5219226;28;20032;-69
2021/01/25 10:54:05;;;;;;;35.75;27.33;;;;;;;1.34;94.07;100529.69;5233225;28;20067;-69
2021/01/25 10:56:36;;;;;;;33.67;25.45;;;;;;;1.38;93.49;100529.44;5219067;28;20029;-69
2021/01/25 10:59:08;;;;;;;30.30;23.80;;;;;;;1.46;92.87;100541.97;5212545;28;20598;-69
2021/01/25 11:01:39;;;;;;;30.27;24.02;;;;;;;1.38;92.28;100524.28;5210441;28;20022;-70
2021/01/25 11:04:10;;;;;;;30.55;23.27;;;;;;;1.60;90.08;100544.66;5222804;28;20033;-69
2021/01/25 11:06:42;;;;;;;31.08;22.98;;;;;;;1.59;89.25;100548.16;5221046;28;20057;-69
2021/01/25 11:09:13;;;;;;;30.52;22.90;;;;;;;1.63;90.02;100538.50;5219136;28;20056;-69
2021/01/25 11:11:44;;;;;;;30.20;24.77;;;;;;;1.73;91.43;100546.59;5239378;28;20518;-69
2021/01/25 11:14:17;;;;;;;31.77;23.33;;;;;;;1.74;88.40;100548.25;5222915;28;20037;-69
2021/01/25 11:16:48;;;;;;;29.15;23.15;;;;;;;1.77;89.80;100551.50;5223921;28;20034;-69
2021/01/25 11:19:19;;;;;;;27.30;21.17;;;;;;;1.84;88.56;100554.63;5224028;28;20098;-69
2021/01/25 11:21:51;;;;;;;27.95;20.73;;;;;;;1.89;89.04;100556.03;5222175;28;20026;-70
2021/01/25 11:24:22;;;;;;;31.00;21.10;;;;;;;1.92;90.21;100558.44;5223676;28;20489;-69
2021/01/25 11:26:54;;;;;;;26.75;21.00;;;;;;;2.04;89.14;100556.94;5221287;28;20609;-69
2021/01/25 11:29:28;;;;;;;27.15;21.67;;;;;;;2.06;88.33;100562.88;5223820;28;20030;-69
2021/01/25 11:32:04;;;;;;;22.80;19.27;;;;;;;2.07;87.32;100559.38;5223016;28;20403;-69
2021/01/25 11:34:36;;;;;;;26.52;19.45;;;;;;;2.13;89.12;100569.41;5223045;28;20319;-69
2021/01/25 11:37:08;;;;;;;22.48;18.58;;;;;;;2.20;85.03;100572.50;5226678;28;20129;-69
2021/01/25 11:39:41;;;;;;;20.30;17.25;;;;;;;2.29;85.56;100571.97;5225219;28;20029;-68
2021/01/25 11:42:13;;;;;;;22.17;18.42;;;;;;;2.33;86.10;100573.47;5224429;28;20018;-69